Time;durP1;ratioP1;P1;durP2;ratioP2;P2;SDS_P1;SDS_P2;PMS_P1;PMS_P2;Temp;Humidity;BMP_temperature;BMP_pressure;BME280_temperature;BME280_humidity;BME280_pressure;Samples;Min_cycle;Max_cycle;Signal;HPM_P1;HPM_P2
2022/03/17 00:01:17;;;;;;;25.42;18.15;;;;;;;;;;4839558;29;20053;-93
2022/03/17 00:03:45;;;;;;;26.42;18.60;;;;;;;;;;4826397;29;20053;-84
2022/03/17 00:06:14;;;;;;;25.70;18.48;;;;;;;;;;4827642;29;20144;-84
2022/03/17 00:08:40;;;;;;;26.40;19.02;;;;;;;;;;4855481;29;20052;-85
2022/03/17 00:11:07;;;;;;;26.63;19.38;;;;;;;;;;4825702;29;20077;-87
2022/03/17 00:13:33;;;;;;;28.38;18.58;;;;;;;;;;4840156;29;20065;-88
2022/03/17 00:15:59;;;;;;;26.63;19.27;;;;;;;;;;4856789;29;20045;-85
2022/03/17 00:18:25;;;;;;;29.90;20.13;;;;;;;;;;4841629;29;20428;-85
2022/03/17 00:20:52;;;;;;;24.77;18.58;;;;;;;;;;4840893;29;20041;-86
2022/03/17 00:23:18;;;;;;;26.92;20.00;;;;;;;;;;4838822;29;20448;-85
2022/03/17 00:25:44;;;;;;;26.95;17.67;;;;;;;;;;4826726;29;20074;-80
2022/03/17 00:28:10;;;;;;;27.20;18.98;;;;;;;;;;4851768;29;20056;-84
2022/03/17 00:30:37;;;;;;;24.60;18.42;;;;;;;;;;4834451;29;20508;-85
2022/03/17 00:33:03;;;;;;;33.78;20.52;;;;;;;;;;4839094;29;20136;-84
2022/03/17 00:35:35;;;;;;;26.42;19.60;;;;;;;;;;4854589;29;20084;-84
2022/03/17 00:38:02;;;;;;;26.92;19.15;;;;;;;;;;4854027;29;20049;-82
2022/03/17 00:40:28;;;;;;;28.23;19.73;;;;;;;;;;4842923;29;20045;-84
2022/03/17 00:42:55;;;;;;;27.00;20.38;;;;;;;;;;4857179;29;20081;-82
2022/03/17 00:45:23;;;;;;;26.80;19.85;;;;;;;;;;4842704;29;20127;-85
2022/03/17 00:47:49;;;;;;;29.30;20.60;;;;;;;;;;4858517;29;20370;-84
2022/03/17 00:50:15;;;;;;;29.38;20.45;;;;;;;;;;4857609;29;20037;-83
2022/03/17 00:52:41;;;;;;;28.92;20.55;;;;;;;;;;4854792;29;20076;-84
2022/03/17 00:55:08;;;;;;;24.25;19.33;;;;;;;;;;4858170;29;20075;-86
2022/03/17 00:57:36;;;;;;;29.13;18.88;;;;;;;;;;4839222;29;20495;-84
2022/03/17 01:00:02;;;;;;;29.63;21.10;;;;;;;;;;4856137;29;20139;-83
2022/03/17 01:02:28;;;;;;;26.88;20.05;;;;;;;;;;4855867;29;20425;-85
2022/03/17 01:04:54;;;;;;;29.80;20.25;;;;;;;;;;4841225;29;20144;-85
2022/03/17 01:07:21;;;;;;;28.85;19.63;;;;;;;;;;4843558;29;20045;-85
2022/03/17 01:09:47;;;;;;;29.77;21.25;;;;;;;;;;4840302;29;20055;-85
2022/03/17 01:12:14;;;;;;;27.27;20.50;;;;;;;;;;4840649;29;20112;-84
2022/03/17 01:14:40;;;;;;;28.50;20.35;;;;;;;;;;4855283;29;20513;-82
2022/03/17 01:17:06;;;;;;;30.23;21.08;;;;;;;;;;4857266;29;20044;-84
2022/03/17 01:19:32;;;;;;;28.70;21.10;;;;;;;;;;4840762;29;20073;-84
2022/03/17 01:21:58;;;;;;;29.75;21.02;;;;;;;;;;4856351;29;20049;-84
2022/03/17 01:24:25;;;;;;;28.30;20.38;;;;;;;;;;4826015;29;20155;-83
2022/03/17 01:26:51;;;;;;;30.05;21.30;;;;;;;;;;4855156;29;20112;-84
2022/03/17 01:29:17;;;;;;;28.67;20.25;;;;;;;;;;4838684;29;20053;-84
2022/03/17 01:31:45;;;;;;;32.03;20.73;;;;;;;;;;4854038;29;20079;-85
2022/03/17 01:34:11;;;;;;;29.15;21.33;;;;;;;;;;4855944;29;20049;-85
2022/03/17 01:36:37;;;;;;;25.90;19.25;;;;;;;;;;4840784;29;20085;-86
2022/03/17 01:39:03;;;;;;;26.73;19.95;;;;;;;;;;4857854;29;20049;-81
2022/03/17 01:41:29;;;;;;;29.33;22.17;;;;;;;;;;4840159;29;20104;-80
2022/03/17 01:43:55;;;;;;;29.40;21.27;;;;;;;;;;4856706;29;20060;-80
2022/03/17 01:46:21;;;;;;;26.75;20.50;;;;;;;;;;4856448;29;20390;-81
2022/03/17 01:48:47;;;;;;;28.58;20.67;;;;;;;;;;4852513;29;20139;-83
2022/03/17 01:51:13;;;;;;;26.08;21.02;;;;;;;;;;4825267;29;20753;-82
2022/03/17 01:53:39;;;;;;;33.92;22.45;;;;;;;;;;4856642;29;20057;-85
2022/03/17 01:56:05;;;;;;;31.30;21.70;;;;;;;;;;4841730;29;20091;-85
2022/03/17 01:58:32;;;;;;;27.80;21.17;;;;;;;;;;4855763;29;20044;-85
2022/03/17 02:00:58;;;;;;;27.90;20.30;;;;;;;;;;4853525;29;20450;-84
2022/03/17 02:03:27;;;;;;;32.22;21.83;;;;;;;;;;4856376;29;20057;-82
2022/03/17 02:05:53;;;;;;;29.73;21.55;;;;;;;;;;4841661;29;20052;-83
2022/03/17 02:08:19;;;;;;;31.00;22.73;;;;;;;;;;4857505;29;20508;-82
2022/03/17 02:13:30;;;;;;;33.33;22.95;;;;;;;;;;4842214;29;20052;-82
2022/03/17 02:15:56;;;;;;;32.75;23.67;;;;;;;;;;4840197;29;20172;-81
2022/03/17 02:18:23;;;;;;;32.45;23.73;;;;;;;;;;4837426;29;20180;-80
2022/03/17 02:20:49;;;;;;;32.25;23.73;;;;;;;;;;4856115;29;20048;-84
2022/03/17 02:26:02;;;;;;;31.45;23.23;;;;;;;;;;4843552;29;20132;-79
2022/03/17 02:28:30;;;;;;;30.15;22.98;;;;;;;;;;4829253;29;20098;-81
2022/03/17 02:30:56;;;;;;;30.08;22.27;;;;;;;;;;4824466;29;20096;-84
2022/03/17 02:33:23;;;;;;;28.73;22.40;;;;;;;;;;4822277;29;20052;-82
2022/03/17 02:35:51;;;;;;;30.38;22.67;;;;;;;;;;4837279;29;20136;-82
2022/03/17 02:38:17;;;;;;;32.00;24.00;;;;;;;;;;4832331;29;20116;-82
2022/03/17 02:40:44;;;;;;;30.25;24.65;;;;;;;;;;4831638;29;20061;-84
2022/03/17 02:43:11;;;;;;;34.30;23.15;;;;;;;;;;4816456;29;20489;-84
2022/03/17 02:45:37;;;;;;;31.98;23.90;;;;;;;;;;4821505;29;20050;-82
2022/03/17 02:48:05;;;;;;;33.53;24.58;;;;;;;;;;4806973;29;20067;-84
2022/03/17 02:50:31;;;;;;;30.42;23.63;;;;;;;;;;4802111;29;20106;-83
2022/03/17 02:52:59;;;;;;;34.92;24.40;;;;;;;;;;4822152;29;20069;-83
2022/03/17 02:55:25;;;;;;;31.30;23.35;;;;;;;;;;4837167;29;20116;-83
2022/03/17 02:57:51;;;;;;;30.75;22.83;;;;;;;;;;4836403;29;20354;-83
2022/03/17 03:00:17;;;;;;;33.05;23.88;;;;;;;;;;4819624;29;20045;-81
2022/03/17 03:02:44;;;;;;;33.17;23.63;;;;;;;;;;4819946;29;20057;-82
2022/03/17 03:05:10;;;;;;;34.72;25.00;;;;;;;;;;4836956;29;20569;-84
2022/03/17 03:07:37;;;;;;;29.85;24.23;;;;;;;;;;4837314;29;20046;-84
2022/03/17 03:10:03;;;;;;;31.27;24.75;;;;;;;;;;4834373;29;20041;-84
2022/03/17 03:12:30;;;;;;;31.83;24.08;;;;;;;;;;4820423;29;20049;-82
2022/03/17 03:14:56;;;;;;;32.15;24.38;;;;;;;;;;4837520;29;20053;-83
2022/03/17 03:17:23;;;;;;;32.92;24.25;;;;;;;;;;4837560;29;20049;-83
2022/03/17 03:19:49;;;;;;;32.53;24.45;;;;;;;;;;4821601;29;20060;-82
2022/03/17 03:22:17;;;;;;;32.38;24.30;;;;;;;;;;4820735;29;20060;-83
2022/03/17 03:24:44;;;;;;;34.58;24.85;;;;;;;;;;4837355;29;20413;-84
2022/03/17 03:27:11;;;;;;;31.83;24.08;;;;;;;;;;4822132;29;20045;-85
2022/03/17 03:29:37;;;;;;;30.60;25.05;;;;;;;;;;4834623;29;20128;-82
2022/03/17 03:32:03;;;;;;;31.73;24.52;;;;;;;;;;4837833;29;20064;-82
2022/03/17 03:34:30;;;;;;;31.00;25.67;;;;;;;;;;4854583;29;20120;-83
2022/03/17 03:39:41;;;;;;;33.33;25.48;;;;;;;;;;4853633;29;20237;-84
2022/03/17 03:42:07;;;;;;;32.20;25.55;;;;;;;;;;4826574;29;20076;-84
2022/03/17 03:44:34;;;;;;;33.20;26.13;;;;;;;;;;4838720;29;20053;-84
2022/03/17 03:47:00;;;;;;;36.28;27.17;;;;;;;;;;4839072;29;20132;-84
2022/03/17 03:49:26;;;;;;;37.17;28.05;;;;;;;;;;4838655;29;20037;-82
2022/03/17 03:51:52;;;;;;;39.25;28.60;;;;;;;;;;4837515;29;20111;-84
2022/03/17 03:54:18;;;;;;;37.92;28.95;;;;;;;;;;4853594;29;20112;-83
2022/03/17 03:56:48;;;;;;;43.53;31.95;;;;;;;;;;4838157;29;20077;-85
2022/03/17 03:59:19;;;;;;;40.15;30.67;;;;;;;;;;4854822;29;20083;-84
2022/03/17 04:01:45;;;;;;;42.45;32.10;;;;;;;;;;4856775;29;20055;-85
2022/03/17 04:04:20;;;;;;;43.90;33.72;;;;;;;;;;4855535;29;20041;-84
2022/03/17 04:06:50;;;;;;;46.10;33.38;;;;;;;;;;4839904;29;20440;-84
2022/03/17 04:09:18;;;;;;;44.75;35.00;;;;;;;;;;4852017;29;20386;-84
2022/03/17 04:11:44;;;;;;;48.40;35.47;;;;;;;;;;4839392;29;20555;-83
2022/03/17 04:14:12;;;;;;;48.28;36.45;;;;;;;;;;4843696;29;20057;-84
2022/03/17 04:16:38;;;;;;;52.10;37.47;;;;;;;;;;4839617;29;20433;-83
2022/03/17 04:19:04;;;;;;;50.92;37.53;;;;;;;;;;4839830;29;20037;-82
2022/03/17 04:21:30;;;;;;;58.58;39.67;;;;;;;;;;4841780;29;20326;-82
2022/03/17 04:23:57;;;;;;;58.17;39.67;;;;;;;;;;4860135;29;20072;-85
2022/03/17 04:26:23;;;;;;;56.58;40.92;;;;;;;;;;4837023;29;20091;-82
2022/03/17 04:28:49;;;;;;;59.17;40.78;;;;;;;;;;4820738;29;20109;-79
2022/03/17 04:31:16;;;;;;;66.63;45.03;;;;;;;;;;4835848;29;20373;-83
2022/03/17 04:33:42;;;;;;;70.88;47.42;;;;;;;;;;4819848;29;20054;-87
2022/03/17 04:36:10;;;;;;;76.50;47.08;;;;;;;;;;4838247;29;20053;-91
2022/03/17 04:38:36;;;;;;;76.18;47.45;;;;;;;;;;4823922;29;20475;-89
2022/03/17 04:41:03;;;;;;;78.18;49.67;;;;;;;;;;4818674;29;20045;-87
2022/03/17 04:43:29;;;;;;;85.45;49.83;;;;;;;;;;4804876;29;20050;-80
2022/03/17 04:45:55;;;;;;;98.70;53.75;;;;;;;;;;4828973;29;20053;-81
2022/03/17 04:48:21;;;;;;;91.55;53.85;;;;;;;;;;4833478;29;20067;-83
2022/03/17 04:50:47;;;;;;;107.60;54.70;;;;;;;;;;4831613;29;20083;-84
2022/03/17 04:53:32;;;;;;;120.07;57.00;;;;;;;;;;4838613;29;20057;-85
2022/03/17 04:56:08;;;;;;;102.05;52.72;;;;;;;;;;4823400;29;20041;-87
2022/03/17 04:58:36;;;;;;;69.25;39.47;;;;;;;;;;4836216;29;20134;-82
2022/03/17 05:01:02;;;;;;;32.28;21.10;;;;;;;;;;4823520;29;20072;-82
2022/03/17 05:03:29;;;;;;;29.65;17.95;;;;;;;;;;4826529;29;20106;-83
2022/03/17 05:05:55;;;;;;;22.08;14.50;;;;;;;;;;4841647;29;20541;-82
2022/03/17 05:08:21;;;;;;;22.15;14.57;;;;;;;;;;4842532;29;20050;-82
2022/03/17 05:10:48;;;;;;;19.95;13.60;;;;;;;;;;4813734;29;20113;-82
2022/03/17 05:13:15;;;;;;;21.45;14.13;;;;;;;;;;4835259;29;20057;-82
2022/03/17 05:15:41;;;;;;;20.42;13.55;;;;;;;;;;4830338;29;20080;-82
2022/03/17 05:18:08;;;;;;;18.92;13.43;;;;;;;;;;4825796;29;20186;-83
2022/03/17 05:20:35;;;;;;;19.80;12.50;;;;;;;;;;4836546;29;20053;-82
2022/03/17 05:23:03;;;;;;;18.02;12.02;;;;;;;;;;4828954;29;20369;-82
2022/03/17 05:25:31;;;;;;;16.05;12.07;;;;;;;;;;4831333;29;20064;-82
2022/03/17 05:27:57;;;;;;;17.75;12.65;;;;;;;;;;4832492;29;20132;-82
2022/03/17 05:30:23;;;;;;;19.88;12.45;;;;;;;;;;4853328;29;20053;-82
2022/03/17 05:32:49;;;;;;;17.55;12.85;;;;;;;;;;4851265;29;20056;-82
2022/03/17 05:35:16;;;;;;;18.95;12.70;;;;;;;;;;4829171;29;20521;-82
2022/03/17 05:37:42;;;;;;;21.55;13.63;;;;;;;;;;4834767;29;20553;-83
2022/03/17 05:40:13;;;;;;;22.38;13.15;;;;;;;;;;4849297;29;20095;-82
2022/03/17 05:42:39;;;;;;;27.67;15.75;;;;;;;;;;4849293;29;20485;-80
2022/03/17 05:45:06;;;;;;;38.00;16.33;;;;;;;;;;4833723;29;20088;-82
2022/03/17 05:47:39;;;;;;;32.75;16.23;;;;;;;;;;4857103;29;20045;-81
2022/03/17 05:50:06;;;;;;;34.10;17.90;;;;;;;;;;4830284;29;20045;-81
2022/03/17 05:52:32;;;;;;;31.73;16.83;;;;;;;;;;4834166;29;20049;-82
2022/03/17 05:54:58;;;;;;;28.90;15.85;;;;;;;;;;4833063;29;20466;-82
2022/03/17 05:57:24;;;;;;;26.20;15.95;;;;;;;;;;4848606;29;20462;-81
2022/03/17 05:59:50;;;;;;;28.75;15.23;;;;;;;;;;4844542;29;20055;-81
2022/03/17 06:02:16;;;;;;;23.58;13.18;;;;;;;;;;4831549;29;20412;-81
2022/03/17 06:04:42;;;;;;;27.25;14.80;;;;;;;;;;4847334;29;20099;-82
2022/03/17 06:07:08;;;;;;;28.00;15.68;;;;;;;;;;4845252;29;20084;-81
2022/03/17 06:09:35;;;;;;;28.40;14.73;;;;;;;;;;4850018;29;20068;-81
2022/03/17 06:12:02;;;;;;;29.10;14.32;;;;;;;;;;4845206;29;20409;-80
2022/03/17 06:14:28;;;;;;;26.30;13.52;;;;;;;;;;4843911;29;20493;-81
2022/03/17 06:16:55;;;;;;;31.38;12.85;;;;;;;;;;4833064;29;20053;-82
2022/03/17 06:19:21;;;;;;;27.55;10.60;;;;;;;;;;4825007;29;20131;-81
2022/03/17 06:21:47;;;;;;;26.77;8.23;;;;;;;;;;4847678;29;20504;-82
2022/03/17 06:24:13;;;;;;;21.95;8.02;;;;;;;;;;4846450;29;20678;-82
2022/03/17 06:26:39;;;;;;;23.00;6.63;;;;;;;;;;4846209;29;20338;-81
2022/03/17 06:29:05;;;;;;;17.77;6.15;;;;;;;;;;4833625;29;20054;-81
2022/03/17 06:31:31;;;;;;;25.48;6.80;;;;;;;;;;4814054;29;20220;-81
2022/03/17 06:33:58;;;;;;;22.08;7.03;;;;;;;;;;4817899;29;20061;-81
2022/03/17 06:36:26;;;;;;;19.98;6.18;;;;;;;;;;4825079;29;20132;-81
2022/03/17 06:38:52;;;;;;;23.27;7.30;;;;;;;;;;4826493;29;20050;-81
2022/03/17 06:41:18;;;;;;;16.92;6.47;;;;;;;;;;4815425;29;20050;-81
2022/03/17 06:43:44;;;;;;;21.42;6.32;;;;;;;;;;4812036;29;20198;-80
2022/03/17 06:46:10;;;;;;;27.85;7.00;;;;;;;;;;4809959;29;20141;-80
2022/03/17 06:48:36;;;;;;;18.35;5.90;;;;;;;;;;4825918;29;20050;-82
2022/03/17 06:51:02;;;;;;;14.88;4.60;;;;;;;;;;4830566;29;20136;-81
2022/03/17 06:53:28;;;;;;;11.10;3.47;;;;;;;;;;4802968;29;20053;-82
2022/03/17 06:55:54;;;;;;;12.75;3.75;;;;;;;;;;4828631;29;20046;-87
2022/03/17 06:58:20;;;;;;;15.07;3.70;;;;;;;;;;4829720;29;20498;-83
2022/03/17 07:00:46;;;;;;;16.70;3.65;;;;;;;;;;4813351;29;20697;-83
2022/03/17 07:03:12;;;;;;;18.40;2.72;;;;;;;;;;4831669;29;20486;-83
2022/03/17 07:05:38;;;;;;;18.63;2.97;;;;;;;;;;4825706;29;20053;-83
2022/03/17 07:08:05;;;;;;;14.50;3.55;;;;;;;;;;4813272;29;20061;-83
2022/03/17 07:10:32;;;;;;;14.38;2.85;;;;;;;;;;4827390;29;20050;-82
2022/03/17 07:12:58;;;;;;;13.13;3.17;;;;;;;;;;4813938;29;20096;-83
2022/03/17 07:15:24;;;;;;;16.20;2.97;;;;;;;;;;4809471;29;20366;-83
2022/03/17 07:17:50;;;;;;;15.13;3.20;;;;;;;;;;4828101;29;20073;-82
2022/03/17 07:20:19;;;;;;;21.42;3.20;;;;;;;;;;4829115;29;20050;-81
2022/03/17 07:22:47;;;;;;;14.77;3.00;;;;;;;;;;4808259;29;20054;-82
2022/03/17 07:25:13;;;;;;;16.60;3.25;;;;;;;;;;4808662;29;20565;-82
2022/03/17 07:27:43;;;;;;;12.50;3.20;;;;;;;;;;4819046;29;20446;-83
2022/03/17 07:30:18;;;;;;;15.15;2.55;;;;;;;;;;4819610;29;20444;-82
2022/03/17 07:32:45;;;;;;;15.35;2.03;;;;;;;;;;4805480;29;20057;-82
2022/03/17 07:35:12;;;;;;;21.98;3.40;;;;;;;;;;4828291;29;20137;-83
2022/03/17 07:37:39;;;;;;;15.65;2.40;;;;;;;;;;4803111;29;20053;-82
2022/03/17 07:40:05;;;;;;;19.67;2.60;;;;;;;;;;4808678;29;20441;-81
2022/03/17 07:42:31;;;;;;;15.82;1.88;;;;;;;;;;4814032;29;20062;-82
2022/03/17 07:44:57;;;;;;;15.48;2.70;;;;;;;;;;4828492;29;20053;-82
2022/03/17 07:47:23;;;;;;;20.05;2.60;;;;;;;;;;4799452;29;20485;-83
2022/03/17 07:49:50;;;;;;;12.50;1.85;;;;;;;;;;4828690;29;20754;-82
2022/03/17 07:52:16;;;;;;;14.40;2.50;;;;;;;;;;4815233;29;20109;-83
2022/03/17 07:54:42;;;;;;;19.48;2.28;;;;;;;;;;4828203;29;20057;-82
2022/03/17 07:57:08;;;;;;;21.13;2.70;;;;;;;;;;4810722;29;20251;-82
2022/03/17 07:59:34;;;;;;;17.52;2.80;;;;;;;;;;4829356;29;20046;-83
2022/03/17 08:02:03;;;;;;;20.85;2.95;;;;;;;;;;4817213;29;20050;-83
2022/03/17 08:04:29;;;;;;;11.18;2.38;;;;;;;;;;4836340;29;20068;-82
2022/03/17 08:06:57;;;;;;;17.20;3.13;;;;;;;;;;4826635;29;20052;-81
2022/03/17 08:09:24;;;;;;;21.13;3.10;;;;;;;;;;4825676;29;20065;-83
2022/03/17 08:11:50;;;;;;;14.35;2.10;;;;;;;;;;4829064;29;20045;-82
2022/03/17 08:14:16;;;;;;;17.35;2.92;;;;;;;;;;4826238;29;20490;-82
2022/03/17 08:16:46;;;;;;;15.80;2.40;;;;;;;;;;4805998;29;20038;-81
2022/03/17 08:19:12;;;;;;;19.25;3.13;;;;;;;;;;4830022;29;20041;-83
2022/03/17 08:21:39;;;;;;;25.15;2.85;;;;;;;;;;4818841;29;20054;-84
2022/03/17 08:24:06;;;;;;;17.65;2.88;;;;;;;;;;4818530;29;20049;-82
2022/03/17 08:26:32;;;;;;;23.42;3.25;;;;;;;;;;4808320;29;20073;-83
2022/03/17 08:28:59;;;;;;;17.27;3.15;;;;;;;;;;4804455;29;20153;-82
2022/03/17 08:31:25;;;;;;;13.73;2.40;;;;;;;;;;4809605;29;20046;-82
2022/03/17 08:33:51;;;;;;;12.98;2.30;;;;;;;;;;4809195;29;20069;-81
2022/03/17 08:36:17;;;;;;;14.13;3.22;;;;;;;;;;4828242;29;20485;-82
2022/03/17 08:38:43;;;;;;;12.20;2.70;;;;;;;;;;4820277;29;20346;-82
2022/03/17 08:41:10;;;;;;;14.95;3.67;;;;;;;;;;4812639;29;20077;-83
2022/03/17 08:43:36;;;;;;;20.35;4.00;;;;;;;;;;4838098;29;20053;-83
2022/03/17 08:51:31;;;;;;;17.27;2.70;;;;;;;;;;4854976;29;20045;-88
2022/03/17 08:53:57;;;;;;;21.48;3.25;;;;;;;;;;4827742;29;20096;-86
2022/03/17 08:56:23;;;;;;;13.88;2.40;;;;;;;;;;4810621;29;20053;-85
2022/03/17 08:58:49;;;;;;;12.95;1.98;;;;;;;;;;4815907;29;20045;-86
2022/03/17 09:01:15;;;;;;;15.30;3.08;;;;;;;;;;4832201;29;20108;-87
2022/03/17 09:03:41;;;;;;;21.50;3.33;;;;;;;;;;4827550;29;20054;-83
2022/03/17 09:06:10;;;;;;;18.92;2.97;;;;;;;;;;4812218;29;20457;-87
2022/03/17 09:08:36;;;;;;;16.13;2.80;;;;;;;;;;4830509;29;20050;-87
2022/03/17 09:11:02;;;;;;;8.82;2.17;;;;;;;;;;4820761;29;20092;-85
2022/03/17 09:13:28;;;;;;;14.35;2.53;;;;;;;;;;4813238;29;20145;-90
2022/03/17 09:15:55;;;;;;;16.92;2.40;;;;;;;;;;4810061;29;20191;-85
2022/03/17 09:18:21;;;;;;;18.15;2.63;;;;;;;;;;4836815;29;20053;-86
2022/03/17 09:20:48;;;;;;;16.13;4.10;;;;;;;;;;4809411;29;20052;-85
2022/03/17 09:23:14;;;;;;;16.98;2.55;;;;;;;;;;4815023;29;20153;-87
2022/03/17 09:25:40;;;;;;;20.42;2.83;;;;;;;;;;4812289;29;20057;-90
2022/03/17 09:28:06;;;;;;;19.20;3.30;;;;;;;;;;4801487;29;20093;-88
2022/03/17 09:30:33;;;;;;;18.48;3.17;;;;;;;;;;4843483;29;20054;-94
2022/03/17 09:32:59;;;;;;;18.58;3.00;;;;;;;;;;4824864;29;20077;-93
2022/03/17 09:35:26;;;;;;;16.27;3.05;;;;;;;;;;4812307;29;20486;-94
2022/03/17 09:37:52;;;;;;;12.60;3.00;;;;;;;;;;4834494;29;20884;-96
2022/03/17 09:40:18;;;;;;;13.45;2.35;;;;;;;;;;4803484;29;20046;-90
2022/03/17 09:42:44;;;;;;;16.40;2.95;;;;;;;;;;4818384;29;20049;-93
2022/03/17 09:45:11;;;;;;;17.55;2.25;;;;;;;;;;4815901;29;20072;-90
2022/03/17 09:47:39;;;;;;;16.23;2.83;;;;;;;;;;4830830;29;20052;-90
2022/03/17 09:50:07;;;;;;;21.83;2.90;;;;;;;;;;4812378;29;20053;-86
2022/03/17 09:52:35;;;;;;;22.52;3.42;;;;;;;;;;4837024;29;20114;-89
2022/03/17 09:55:01;;;;;;;15.18;2.80;;;;;;;;;;4814657;29;20057;-91
2022/03/17 09:57:27;;;;;;;14.40;2.20;;;;;;;;;;4812739;29;20375;-90
2022/03/17 09:59:53;;;;;;;16.52;2.92;;;;;;;;;;4827715;29;20054;-92
2022/03/17 10:02:20;;;;;;;12.75;2.08;;;;;;;;;;4812413;29;20086;-91
2022/03/17 10:04:47;;;;;;;15.00;2.45;;;;;;;;;;4832157;29;20056;-91
2022/03/17 10:07:14;;;;;;;13.73;2.08;;;;;;;;;;4842384;29;20057;-92
2022/03/17 10:09:42;;;;;;;15.00;2.90;;;;;;;;;;4848912;29;20041;-90
2022/03/17 10:12:10;;;;;;;12.18;2.15;;;;;;;;;;4828603;29;20068;-92
2022/03/17 10:14:40;;;;;;;12.10;2.03;;;;;;;;;;4827877;29;20502;-91
2022/03/17 10:17:10;;;;;;;15.48;2.50;;;;;;;;;;4827255;29;20054;-92
2022/03/17 10:19:36;;;;;;;13.55;2.58;;;;;;;;;;4813439;29;20049;-91
2022/03/17 10:22:10;;;;;;;11.88;2.20;;;;;;;;;;4829677;29;20482;-90
2022/03/17 10:24:37;;;;;;;9.23;2.33;;;;;;;;;;4819138;29;20053;-91
2022/03/17 10:27:04;;;;;;;16.98;2.55;;;;;;;;;;4816540;29;20496;-91
2022/03/17 10:29:31;;;;;;;14.23;2.08;;;;;;;;;;4830201;29;20092;-89
2022/03/17 10:31:59;;;;;;;12.05;2.55;;;;;;;;;;4831629;29;20560;-89
2022/03/17 10:34:29;;;;;;;10.02;2.10;;;;;;;;;;4812088;29;20045;-94
2022/03/17 10:37:10;;;;;;;14.68;2.28;;;;;;;;;;4827656;29;20060;-95
2022/03/17 10:39:42;;;;;;;14.70;3.05;;;;;;;;;;4832862;29;20706;-95
2022/03/17 10:42:11;;;;;;;15.27;2.42;;;;;;;;;;4837114;29;20067;-92
2022/03/17 10:44:39;;;;;;;11.25;1.95;;;;;;;;;;4835467;29;20153;-95
2022/03/17 10:47:05;;;;;;;11.27;2.35;;;;;;;;;;4811616;29;20054;-92
2022/03/17 10:49:31;;;;;;;18.60;2.78;;;;;;;;;;4826647;29;20410;-87
2022/03/17 10:51:58;;;;;;;9.35;2.05;;;;;;;;;;4826661;29;20053;-91
2022/03/17 10:54:24;;;;;;;13.02;3.20;;;;;;;;;;4813434;29;20186;-92
2022/03/17 10:57:05;;;;;;;17.10;2.80;;;;;;;;;;4811362;29;20052;-88
2022/03/17 10:59:42;;;;;;;15.45;2.47;;;;;;;;;;4826129;29;20061;-93
2022/03/17 11:02:08;;;;;;;14.27;3.05;;;;;;;;;;4835284;29;20524;-90
2022/03/17 11:04:43;;;;;;;21.35;3.25;;;;;;;;;;4796164;29;20080;-93
2022/03/17 11:07:13;;;;;;;16.17;2.72;;;;;;;;;;4811361;29;20053;-95
2022/03/17 11:09:39;;;;;;;12.15;2.55;;;;;;;;;;4826210;29;20045;-88
2022/03/17 11:12:17;;;;;;;15.00;2.63;;;;;;;;;;4807225;29;20179;-86
2022/03/17 11:14:44;;;;;;;19.52;2.83;;;;;;;;;;4827081;29;20058;-90
2022/03/17 11:17:11;;;;;;;18.95;3.08;;;;;;;;;;4822773;29;20101;-94
2022/03/17 11:19:38;;;;;;;14.50;3.13;;;;;;;;;;4818853;29;20052;-90
2022/03/17 11:22:08;;;;;;;18.13;2.38;;;;;;;;;;4835903;29;20057;-89
2022/03/17 11:24:34;;;;;;;20.65;3.40;;;;;;;;;;4829087;29;20060;-92
2022/03/17 11:27:27;;;;;;;11.10;2.30;;;;;;;;;;4827715;29;20494;-91
2022/03/17 11:29:53;;;;;;;15.38;2.67;;;;;;;;;;4819454;29;20102;-94
2022/03/17 11:32:29;;;;;;;18.50;2.47;;;;;;;;;;4797208;29;20494;-87
2022/03/17 11:35:09;;;;;;;16.50;2.80;;;;;;;;;;4841099;29;20049;-91
2022/03/17 11:37:35;;;;;;;14.70;2.42;;;;;;;;;;4827798;29;20079;-91
2022/03/17 11:40:09;;;;;;;12.00;2.97;;;;;;;;;;4826303;29;20570;-84
2022/03/17 11:42:35;;;;;;;;;;;;;;;;;;4826223;29;20057;-90
2022/03/17 11:45:04;;;;;;;10.52;2.40;;;;;;;;;;4816155;29;20397;-84
2022/03/17 11:47:36;;;;;;;16.63;2.65;;;;;;;;;;4811609;29;20064;-90
2022/03/17 11:50:22;;;;;;;8.80;1.80;;;;;;;;;;4810885;29;20141;-84
2022/03/17 11:52:58;;;;;;;10.38;2.70;;;;;;;;;;4840551;29;20478;-91
2022/03/17 11:55:30;;;;;;;20.95;3.03;;;;;;;;;;4829898;29;20113;-92
2022/03/17 11:58:15;;;;;;;17.90;3.00;;;;;;;;;;4820997;29;20058;-90
2022/03/17 12:00:52;;;;;;;12.07;2.28;;;;;;;;;;4833111;29;20144;-90
2022/03/17 12:03:28;;;;;;;14.85;2.30;;;;;;;;;;4812221;29;20068;-94
2022/03/17 12:06:10;;;;;;;16.52;3.00;;;;;;;;;;4812140;29;20050;-92
2022/03/17 12:08:41;;;;;;;15.90;3.25;;;;;;;;;;4825805;29;20477;-92
2022/03/17 12:11:13;;;;;;;11.82;2.58;;;;;;;;;;4829043;29;20060;-90
2022/03/17 12:13:39;;;;;;;11.63;2.42;;;;;;;;;;4810872;29;21557;-91
2022/03/17 12:16:06;;;;;;;12.68;2.05;;;;;;;;;;4836112;29;20097;-90
2022/03/17 12:18:52;;;;;;;12.23;2.35;;;;;;;;;;4836960;29;20053;-90
2022/03/17 12:21:18;;;;;;;9.80;1.95;;;;;;;;;;4800915;29;20374;-95
2022/03/17 12:23:45;;;;;;;10.77;1.83;;;;;;;;;;4812724;29;20054;-92
2022/03/17 12:26:12;;;;;;;14.13;2.20;;;;;;;;;;4828836;29;20100;-92
2022/03/17 12:28:44;;;;;;;11.80;1.90;;;;;;;;;;4818787;29;20082;-89
2022/03/17 12:31:10;;;;;;;10.70;2.10;;;;;;;;;;4848904;29;20057;-90
2022/03/17 12:33:38;;;;;;;11.00;2.00;;;;;;;;;;4828462;29;20049;-79
2022/03/17 12:36:05;;;;;;;13.38;1.85;;;;;;;;;;4817222;29;20057;-85
2022/03/17 12:38:32;;;;;;;9.82;2.35;;;;;;;;;;4839640;29;20050;-86
2022/03/17 12:41:00;;;;;;;11.93;3.53;;;;;;;;;;4819393;29;20090;-85
2022/03/17 12:43:26;;;;;;;10.57;2.05;;;;;;;;;;4814418;29;20447;-83
2022/03/17 12:45:52;;;;;;;8.57;1.92;;;;;;;;;;4832534;29;20117;-85
2022/03/17 12:48:19;;;;;;;12.70;1.83;;;;;;;;;;4839672;29;20049;-84
2022/03/17 12:50:46;;;;;;;13.45;1.73;;;;;;;;;;4825920;29;20577;-84
2022/03/17 12:53:13;;;;;;;11.07;1.67;;;;;;;;;;4840468;29;20116;-85
2022/03/17 12:55:39;;;;;;;13.10;2.35;;;;;;;;;;4823287;29;20517;-84
2022/03/17 12:58:05;;;;;;;14.15;2.40;;;;;;;;;;4839180;29;20140;-83
2022/03/17 13:00:32;;;;;;;8.90;1.83;;;;;;;;;;4802979;29;20083;-84
2022/03/17 13:02:59;;;;;;;13.88;2.00;;;;;;;;;;4826161;29;20410;-83
2022/03/17 13:08:12;;;;;;;12.57;1.63;;;;;;;;;;4831791;29;20494;-86
2022/03/17 13:16:11;;;;;;;6.22;1.15;;;;;;;;;;4827103;29;20045;-84
2022/03/17 13:18:42;;;;;;;11.35;1.95;;;;;;;;;;4822168;29;20058;-85
2022/03/17 13:21:15;;;;;;;12.65;2.13;;;;;;;;;;4825130;29;20065;-85
2022/03/17 13:23:42;;;;;;;12.30;2.47;;;;;;;;;;4823441;29;20057;-85
2022/03/17 13:26:08;;;;;;;6.43;1.25;;;;;;;;;;4836005;29;20057;-85
2022/03/17 13:28:34;;;;;;;14.43;2.40;;;;;;;;;;4840064;29;20500;-86
2022/03/17 13:31:00;;;;;;;7.63;1.75;;;;;;;;;;4834125;29;20061;-86
2022/03/17 13:33:30;;;;;;;11.45;1.55;;;;;;;;;;4818734;29;20106;-86
2022/03/17 13:35:57;;;;;;;13.25;2.10;;;;;;;;;;4836483;29;20050;-83
2022/03/17 13:38:30;;;;;;;10.15;1.77;;;;;;;;;;4826597;29;20387;-87
2022/03/17 13:40:57;;;;;;;16.38;2.75;;;;;;;;;;4828914;29;20077;-84
2022/03/17 13:43:32;;;;;;;9.45;1.70;;;;;;;;;;4810072;29;20053;-85
2022/03/17 13:45:59;;;;;;;11.50;1.63;;;;;;;;;;4810186;29;20684;-83
2022/03/17 13:48:26;;;;;;;10.60;2.45;;;;;;;;;;4823477;29;20048;-82
2022/03/17 13:50:53;;;;;;;5.60;1.20;;;;;;;;;;4803064;29;20042;-83
2022/03/17 13:53:29;;;;;;;7.15;1.38;;;;;;;;;;4808087;29;20058;-83
2022/03/17 13:55:57;;;;;;;12.10;1.80;;;;;;;;;;4827995;29;20085;-83
2022/03/17 13:58:30;;;;;;;10.75;2.03;;;;;;;;;;4808582;29;20132;-83
2022/03/17 14:01:16;;;;;;;9.65;1.92;;;;;;;;;;4825822;29;20049;-83
2022/03/17 14:03:52;;;;;;;10.77;1.75;;;;;;;;;;4808716;29;20097;-83
2022/03/17 14:06:32;;;;;;;7.53;1.50;;;;;;;;;;4811998;29;20174;-83
2022/03/17 14:09:02;;;;;;;7.35;2.17;;;;;;;;;;4797481;29;20133;-82
2022/03/17 14:11:32;;;;;;;14.27;1.90;;;;;;;;;;4823578;29;20517;-83
2022/03/17 14:13:59;;;;;;;15.10;2.40;;;;;;;;;;4823979;29;20042;-85
2022/03/17 14:16:26;;;;;;;10.80;2.40;;;;;;;;;;4823049;29;20125;-83
2022/03/17 14:18:54;;;;;;;6.00;1.05;;;;;;;;;;4826421;29;20038;-83
2022/03/17 14:21:21;;;;;;;8.05;1.25;;;;;;;;;;4816151;29;20042;-84
2022/03/17 14:26:33;;;;;;;9.85;2.08;;;;;;;;;;4826367;29;20103;-84
2022/03/17 14:29:00;;;;;;;9.33;1.50;;;;;;;;;;4808000;29;20165;-83
2022/03/17 14:31:30;;;;;;;4.53;1.30;;;;;;;;;;4808082;29;20164;-83
2022/03/17 14:33:57;;;;;;;7.75;1.60;;;;;;;;;;4823892;29;20049;-83
2022/03/17 14:36:24;;;;;;;10.15;1.42;;;;;;;;;;4810681;29;20049;-83
2022/03/17 14:38:52;;;;;;;10.93;1.70;;;;;;;;;;4822484;29;20085;-84
2022/03/17 14:41:18;;;;;;;5.25;1.10;;;;;;;;;;4822806;29;20209;-84
2022/03/17 14:43:45;;;;;;;4.35;0.90;;;;;;;;;;4808496;29;20070;-84
2022/03/17 14:46:12;;;;;;;7.70;1.10;;;;;;;;;;4808911;29;20077;-84
2022/03/17 14:48:41;;;;;;;8.13;1.70;;;;;;;;;;4823477;29;20114;-84
2022/03/17 14:51:11;;;;;;;7.63;1.80;;;;;;;;;;4814497;29;20053;-83
2022/03/17 14:53:37;;;;;;;7.78;1.30;;;;;;;;;;4807661;29;20069;-84